Time;durP1;ratioP1;P1;durP2;ratioP2;P2;SDS_P1;SDS_P2;PMS_P1;PMS_P2;Temp;Humidity;BMP_temperature;BMP_pressure;BME280_temperature;BME280_humidity;BME280_pressure;Samples;Min_cycle;Max_cycle;Signal;HPM_P1;HPM_P2
2023/05/27 00:00:50;;;;;;;9.80;2.50;;;;;;;12.62;51.42;102739.16;4891532;28;97511;-50
2023/05/27 00:03:16;;;;;;;7.20;2.77;;;;;;;12.51;51.38;102738.78;4892484;28;97332;-54
2023/05/27 00:05:41;;;;;;;6.10;2.83;;;;;;;12.48;51.59;102734.19;4891403;28;102303;-52
2023/05/27 00:08:06;;;;;;;4.20;2.13;;;;;;;12.47;51.66;102732.66;4893065;28;97031;-52
2023/05/27 00:10:32;;;;;;;7.37;3.23;;;;;;;12.41;51.63;102749.03;4893336;28;97257;-51
2023/05/27 00:12:57;;;;;;;9.33;3.23;;;;;;;12.32;51.95;102729.66;4893678;28;97711;-50
2023/05/27 00:15:22;;;;;;;4.53;2.30;;;;;;;12.28;51.89;102731.78;4894571;28;103665;-53
2023/05/27 00:17:49;;;;;;;11.10;3.70;;;;;;;12.25;51.84;102738.25;4893154;28;97328;-49
2023/05/27 00:20:15;;;;;;;7.00;2.47;;;;;;;12.24;51.98;102731.16;4891530;28;97509;-53
2023/05/27 00:22:41;;;;;;;7.53;2.77;;;;;;;12.18;52.01;102737.72;4893572;28;97448;-52
2023/05/27 00:25:07;;;;;;;7.80;2.90;;;;;;;12.13;52.20;102728.03;4893493;28;97861;-54
2023/05/27 00:27:33;;;;;;;8.57;3.20;;;;;;;12.11;52.07;102738.00;4893440;28;96844;-50
2023/05/27 00:29:58;;;;;;;4.07;2.67;;;;;;;12.09;51.98;102734.91;4893595;28;97213;-51
2023/05/27 00:32:23;;;;;;;14.00;3.43;;;;;;;12.05;52.01;102735.06;4893018;28;97369;-54
2023/05/27 00:34:49;;;;;;;9.70;2.60;;;;;;;11.97;52.05;102728.25;4896860;28;97080;-50
2023/05/27 00:37:14;;;;;;;8.07;2.93;;;;;;;11.93;52.01;102725.63;4893462;28;97709;-50
2023/05/27 00:39:40;;;;;;;5.83;2.63;;;;;;;11.90;52.18;102734.81;4892503;28;98269;-54
2023/05/27 00:42:07;;;;;;;6.23;2.67;;;;;;;11.86;52.20;102728.66;4893358;28;97400;-52
2023/05/27 00:44:32;;;;;;;7.07;2.60;;;;;;;11.83;52.31;102720.53;4893320;28;98416;-52
2023/05/27 00:46:58;;;;;;;9.33;2.87;;;;;;;11.81;51.94;102718.22;4895115;28;96746;-51
2023/05/27 00:49:25;;;;;;;4.43;2.40;;;;;;;11.77;52.07;102720.31;4889966;28;97105;-53
2023/05/27 00:51:50;;;;;;;4.83;2.43;;;;;;;11.74;52.20;102721.25;4896871;28;98628;-51
2023/05/27 00:54:16;;;;;;;6.40;2.43;;;;;;;11.65;52.25;102726.66;4893694;28;96798;-53
2023/05/27 00:56:41;;;;;;;5.63;2.30;;;;;;;11.60;52.42;102727.22;4891174;28;97301;-55
2023/05/27 00:59:07;;;;;;;4.43;2.40;;;;;;;11.56;52.42;102723.84;4892451;28;97133;-53
2023/05/27 01:01:36;;;;;;;7.83;3.50;;;;;;;11.53;52.27;102718.47;4890780;28;97442;-52
2023/05/27 01:04:02;;;;;;;4.03;2.50;;;;;;;11.49;52.47;102715.06;4891395;28;98361;-50
2023/05/27 01:06:47;;;;;;;6.93;2.43;;;;;;;11.43;52.72;102714.84;4898820;28;97011;-53
2023/05/27 01:09:46;;;;;;;3.30;2.30;;;;;;;11.38;53.54;102707.16;4897087;28;97394;-54
2023/05/27 01:12:42;;;;;;;5.40;1.97;;;;;;;11.30;53.77;102711.38;4894424;28;98475;-50
2023/05/27 01:15:09;;;;;;;3.13;2.50;;;;;;;11.35;52.73;102710.81;4899442;28;98120;-51
2023/05/27 01:17:37;;;;;;;5.83;2.50;;;;;;;11.35;52.60;102710.81;4902354;28;96800;-51
2023/05/27 01:20:05;;;;;;;4.17;2.10;;;;;;;11.30;52.65;102716.88;4900769;28;96901;-51
2023/05/27 01:22:31;;;;;;;3.00;2.27;;;;;;;11.27;52.71;102709.50;4900459;28;97072;-50
2023/05/27 01:24:57;;;;;;;6.17;3.10;;;;;;;11.23;52.74;102715.16;4895848;28;97014;-51
2023/05/27 01:27:24;;;;;;;6.10;2.20;;;;;;;11.20;52.78;102704.25;4898986;28;97588;-52
2023/05/27 01:29:51;;;;;;;2.73;2.13;;;;;;;11.17;52.75;102705.16;4899028;28;97353;-50
2023/05/27 01:32:34;;;;;;;6.77;2.67;;;;;;;11.12;53.37;102705.69;4900628;28;97030;-53
2023/05/27 01:35:17;;;;;;;3.43;2.27;;;;;;;11.07;53.44;102698.78;4897400;28;97491;-51
2023/05/27 01:37:45;;;;;;;8.90;2.70;;;;;;;11.02;52.86;102695.81;4901064;28;97441;-51
2023/05/27 01:40:12;;;;;;;5.00;2.80;;;;;;;11.00;52.88;102695.50;4898944;28;96914;-52
2023/05/27 01:42:40;;;;;;;4.10;2.37;;;;;;;10.98;53.02;102689.69;4896661;28;96926;-53
2023/05/27 01:45:07;;;;;;;9.73;2.80;;;;;;;10.95;53.13;102693.31;4898106;28;97522;-49
2023/05/27 01:47:32;;;;;;;3.97;2.40;;;;;;;10.93;53.17;102679.22;4901090;28;96792;-51
2023/05/27 01:49:58;;;;;;;5.80;2.73;;;;;;;10.91;52.98;102687.94;4898861;28;97237;-52
2023/05/27 01:52:23;;;;;;;6.57;2.30;;;;;;;10.86;53.15;102685.72;4899505;28;97421;-52
2023/05/27 01:54:49;;;;;;;6.60;2.70;;;;;;;10.84;53.06;102685.41;4899105;28;97307;-50
2023/05/27 01:57:14;;;;;;;5.93;2.60;;;;;;;10.85;52.78;102683.44;4900865;28;98901;-53
2023/05/27 01:59:40;;;;;;;4.37;2.23;;;;;;;10.79;52.95;102682.47;4898723;28;97057;-50
2023/05/27 02:02:06;;;;;;;5.43;2.70;;;;;;;10.70;53.03;102679.63;4898068;28;97289;-51
2023/05/27 02:04:31;;;;;;;6.00;2.53;;;;;;;10.69;53.05;102680.81;4901553;28;97311;-52
2023/05/27 02:06:56;;;;;;;3.33;2.40;;;;;;;10.65;52.98;102680.94;4899344;28;97186;-52
2023/05/27 02:09:22;;;;;;;6.17;2.57;;;;;;;10.57;53.08;102676.88;4898825;28;97090;-54
2023/05/27 02:11:47;;;;;;;5.70;3.07;;;;;;;10.51;53.08;102678.63;4896436;28;97777;-53
2023/05/27 02:14:14;;;;;;;6.53;2.90;;;;;;;10.48;53.24;102674.03;4897023;28;97111;-51
2023/05/27 02:16:39;;;;;;;8.00;3.20;;;;;;;10.47;53.25;102676.00;4897762;28;96628;-53
2023/05/27 02:19:05;;;;;;;5.83;2.70;;;;;;;10.45;53.25;102683.16;4894260;28;97154;-52
2023/05/27 02:21:31;;;;;;;4.23;2.43;;;;;;;10.42;53.19;102684.81;4897762;28;97481;-50
2023/05/27 02:23:57;;;;;;;7.40;3.03;;;;;;;10.42;53.01;102695.03;4893966;28;97313;-53
2023/05/27 02:26:22;;;;;;;7.20;3.50;;;;;;;10.38;53.11;102688.88;4892703;28;97136;-50
2023/05/27 02:28:48;;;;;;;3.70;2.60;;;;;;;10.29;53.23;102686.78;4893697;28;97172;-52
2023/05/27 02:31:13;;;;;;;9.83;2.90;;;;;;;10.26;53.37;102697.94;4892675;28;97407;-51
2023/05/27 02:33:39;;;;;;;6.83;3.20;;;;;;;10.26;53.22;102697.94;4917404;28;97706;-50
2023/05/27 02:36:05;;;;;;;4.20;2.20;;;;;;;10.19;53.32;102695.38;4894760;28;97176;-53
2023/05/27 02:38:31;;;;;;;8.70;3.00;;;;;;;10.14;53.46;102702.19;4897635;28;97106;-52
2023/05/27 02:40:56;;;;;;;6.23;2.93;;;;;;;10.13;53.43;102706.19;4894950;28;97276;-52
2023/05/27 02:43:21;;;;;;;5.23;2.67;;;;;;;10.14;53.34;102712.44;4895653;28;97100;-52
2023/05/27 02:45:46;;;;;;;4.43;2.47;;;;;;;10.07;53.45;102707.88;4893781;28;96934;-54
2023/05/27 02:48:12;;;;;;;6.87;2.50;;;;;;;10.06;53.42;102709.09;4895726;28;100307;-50
2023/05/27 02:50:38;;;;;;;4.47;2.13;;;;;;;10.05;53.35;102710.31;4891844;28;97507;-51
2023/05/27 02:53:03;;;;;;;5.83;2.30;;;;;;;10.03;53.17;102707.22;4895049;28;98385;-52
2023/05/27 02:55:28;;;;;;;6.60;3.30;;;;;;;9.97;53.44;102702.69;4895502;28;96705;-50
2023/05/27 02:57:54;;;;;;;5.47;2.60;;;;;;;9.94;53.51;102693.34;4893670;28;97080;-51
2023/05/27 03:00:20;;;;;;;4.10;2.17;;;;;;;9.95;53.86;102686.66;4892202;28;97706;-54
2023/05/27 03:02:45;;;;;;;5.17;2.50;;;;;;;9.96;53.77;102690.91;4898301;28;97685;-54
2023/05/27 03:05:11;;;;;;;6.43;2.17;;;;;;;9.96;53.98;102688.16;4894981;28;97300;-51
2023/05/27 03:07:36;;;;;;;9.60;2.77;;;;;;;9.97;54.00;102686.97;4891693;28;97369;-51
2023/05/27 03:10:02;;;;;;;5.37;2.33;;;;;;;9.96;53.69;102690.19;4895156;28;99876;-52
2023/05/27 03:12:27;;;;;;;5.37;2.73;;;;;;;9.95;53.64;102689.41;4894512;28;96961;-49
2023/05/27 03:14:53;;;;;;;2.97;2.60;;;;;;;9.93;53.63;102693.78;4894075;28;97298;-49
2023/05/27 03:17:19;;;;;;;2.60;2.40;;;;;;;9.89;53.82;102696.66;4893033;28;96895;-53
2023/05/27 03:19:44;;;;;;;4.17;2.80;;;;;;;9.90;53.74;102691.91;4894173;28;97124;-51
2023/05/27 03:22:10;;;;;;;3.57;2.50;;;;;;;9.88;53.75;102691.56;4892175;28;97148;-52
2023/05/27 03:24:36;;;;;;;7.37;3.20;;;;;;;9.87;53.63;102692.78;4893185;28;97075;-51
2023/05/27 03:27:03;;;;;;;4.23;2.30;;;;;;;9.82;53.64;102689.38;4892357;28;97037;-50
2023/05/27 03:29:28;;;;;;;6.60;2.63;;;;;;;9.79;53.70;102690.25;4893859;28;97050;-49
2023/05/27 03:31:54;;;;;;;4.07;2.47;;;;;;;9.77;53.76;102691.88;4892476;28;97087;-54
2023/05/27 03:34:19;;;;;;;4.67;2.83;;;;;;;9.75;53.69;102689.59;4896168;28;96721;-49
2023/05/27 03:36:45;;;;;;;6.90;3.00;;;;;;;9.71;53.94;102683.44;4896032;28;97326;-54
2023/05/27 03:39:11;;;;;;;4.63;2.60;;;;;;;9.70;53.93;102683.84;4891822;28;97601;-52
2023/05/27 03:41:37;;;;;;;7.40;3.23;;;;;;;9.67;54.10;102702.00;4893382;28;97212;-50
2023/05/27 03:44:02;;;;;;;9.57;2.80;;;;;;;9.68;53.92;102678.78;4892582;28;97016;-55
2023/05/27 03:46:27;;;;;;;3.50;2.30;;;;;;;9.70;54.10;102673.63;4893223;28;97102;-52
2023/05/27 03:48:53;;;;;;;10.30;3.50;;;;;;;9.69;54.24;102666.59;4892582;28;97572;-51
2023/05/27 03:51:20;;;;;;;9.27;2.40;;;;;;;9.71;54.28;102674.41;4892696;28;98347;-51
2023/05/27 03:53:45;;;;;;;7.60;2.13;;;;;;;9.72;54.38;102681.44;4894903;28;97669;-53
2023/05/27 03:56:11;;;;;;;9.83;2.67;;;;;;;9.74;54.07;102685.28;4894811;28;96811;-52
2023/05/27 03:58:36;;;;;;;4.80;1.73;;;;;;;9.76;54.30;102679.38;4895714;28;97380;-53
2023/05/27 04:01:02;;;;;;;7.40;3.00;;;;;;;9.78;54.43;102676.94;4895402;28;100793;-54
2023/05/27 04:03:28;;;;;;;4.77;2.37;;;;;;;9.82;54.05;102685.84;4892675;28;97010;-51
2023/05/27 04:05:53;;;;;;;7.00;2.40;;;;;;;9.80;54.02;102678.06;4893218;28;96767;-51
2023/05/27 04:08:18;;;;;;;6.37;2.70;;;;;;;9.79;54.14;102682.00;4890755;28;98462;-50
2023/05/27 04:10:44;;;;;;;8.47;2.73;;;;;;;9.80;54.32;102683.56;4894421;28;98443;-51
2023/05/27 04:13:09;;;;;;;9.80;3.43;;;;;;;9.83;54.27;102690.13;4893471;28;97180;-49
2023/05/27 04:15:34;;;;;;;6.67;3.30;;;;;;;9.87;54.08;102696.31;4889086;28;97170;-55
2023/05/27 04:18:01;;;;;;;4.90;2.63;;;;;;;9.90;54.07;102694.66;4894439;28;103849;-49
2023/05/27 04:20:33;;;;;;;4.50;2.50;;;;;;;9.88;54.35;102692.34;4893857;28;97366;-50
2023/05/27 04:22:59;;;;;;;4.30;2.57;;;;;;;9.91;54.13;102690.72;4892106;28;97178;-52
2023/05/27 04:25:24;;;;;;;7.70;2.97;;;;;;;9.96;53.99;102696.44;4895150;28;96993;-53
2023/05/27 04:27:50;;;;;;;7.73;2.40;;;;;;;9.95;54.07;102688.63;4891728;28;105939;-52
2023/05/27 04:30:15;;;;;;;6.40;2.57;;;;;;;9.94;54.40;102681.59;4893299;28;97770;-52
2023/05/27 04:32:40;;;;;;;7.60;2.27;;;;;;;9.98;54.45;102687.75;4892417;28;97058;-52
2023/05/27 04:35:09;;;;;;;4.27;2.43;;;;;;;10.03;54.27;102689.94;4894443;28;97373;-53
2023/05/27 04:37:40;;;;;;;6.37;2.57;;;;;;;10.01;54.39;102684.88;4897432;28;97270;-51
2023/05/27 04:40:08;;;;;;;5.80;2.50;;;;;;;10.04;54.50;102686.00;4893272;28;97694;-51
2023/05/27 04:42:36;;;;;;;5.13;2.10;;;;;;;10.05;54.49;102688.28;4899989;28;96973;-51
2023/05/27 04:45:06;;;;;;;5.30;2.30;;;;;;;10.09;54.46;102691.72;4900043;28;97079;-55
2023/05/27 04:47:36;;;;;;;2.90;2.17;;;;;;;10.13;54.68;102670.41;4893398;28;97546;-51
2023/05/27 04:50:03;;;;;;;4.83;2.40;;;;;;;10.21;54.58;102688.25;4898301;28;97348;-54
2023/05/27 04:52:29;;;;;;;3.17;2.07;;;;;;;10.26;54.58;102693.19;4891447;28;96708;-49
2023/05/27 04:54:54;;;;;;;3.90;2.77;;;;;;;10.30;54.53;102684.81;4890257;28;96862;-53
2023/05/27 04:57:21;;;;;;;4.13;2.63;;;;;;;10.33;54.73;102681.94;4891889;28;98792;-51
2023/05/27 05:00:36;;;;;;;5.20;2.30;;;;;;;10.36;54.88;102716.06;4893011;28;97165;-54
2023/05/27 05:02:36;;;;;;;4.40;2.50;;;;;;;10.46;55.01;102685.47;4887672;28;97192;-52
2023/05/27 05:05:02;;;;;;;4.60;2.50;;;;;;;10.50;54.87;102677.88;4893244;28;96998;-55
2023/05/27 05:07:28;;;;;;;5.50;2.57;;;;;;;10.57;54.92;102676.13;4893475;28;97644;-50
2023/05/27 05:09:53;;;;;;;5.07;2.97;;;;;;;10.64;54.97;102684.91;4891945;28;97204;-50
2023/05/27 05:12:18;;;;;;;4.23;2.00;;;;;;;10.70;55.07;102680.38;4891070;28;97268;-54
2023/05/27 05:14:44;;;;;;;2.77;2.17;;;;;;;10.78;55.04;102676.19;4891862;28;97502;-49
2023/05/27 05:17:09;;;;;;;6.30;2.80;;;;;;;10.86;54.97;102668.44;4891209;28;98602;-50
2023/05/27 05:19:34;;;;;;;2.83;1.90;;;;;;;10.91;55.06;102682.44;4892430;28;103750;-53
2023/05/27 05:22:00;;;;;;;4.47;2.43;;;;;;;10.95;55.06;102682.28;4893479;28;96824;-49
2023/05/27 05:24:25;;;;;;;2.60;2.40;;;;;;;11.03;55.19;102686.38;4893710;28;97327;-53
2023/05/27 05:26:50;;;;;;;6.40;3.20;;;;;;;11.10;55.22;102691.59;4892707;28;98658;-51
2023/05/27 05:29:16;;;;;;;3.57;2.63;;;;;;;11.17;55.29;102688.63;4892900;28;102012;-55
2023/05/27 05:31:43;;;;;;;6.80;2.67;;;;;;;11.27;55.26;102681.94;4893327;28;97265;-50
2023/05/27 05:34:09;;;;;;;6.73;2.67;;;;;;;11.38;55.40;102681.59;4893037;28;97164;-49
2023/05/27 05:36:34;;;;;;;3.30;2.70;;;;;;;11.49;55.49;102677.22;4892948;28;97766;-53
2023/05/27 05:39:00;;;;;;;8.00;2.83;;;;;;;11.61;55.33;102679.16;4891173;28;98351;-53
2023/05/27 05:41:25;;;;;;;8.33;2.83;;;;;;;11.72;55.52;102682.31;4892162;28;97277;-51
2023/05/27 05:43:51;;;;;;;6.90;2.90;;;;;;;11.82;55.46;102691.38;4894769;28;97362;-50
2023/05/27 05:46:16;;;;;;;11.43;3.77;;;;;;;11.93;55.58;102703.56;4892320;28;97250;-53
2023/05/27 05:48:41;;;;;;;5.20;2.40;;;;;;;12.02;55.63;102695.34;4891965;28;100954;-51
2023/05/27 05:51:06;;;;;;;10.93;3.30;;;;;;;12.14;55.71;102699.25;4891372;28;97916;-51
2023/05/27 05:53:32;;;;;;;2.87;2.30;;;;;;;12.24;55.54;102702.78;4894181;28;96702;-51
2023/05/27 05:55:57;;;;;;;8.67;2.57;;;;;;;12.34;55.60;102702.38;4896884;28;97631;-50
2023/05/27 05:58:22;;;;;;;6.73;2.50;;;;;;;12.45;55.59;102685.41;4895208;28;105055;-52
2023/05/27 06:00:48;;;;;;;5.57;2.77;;;;;;;12.55;55.40;102698.00;4895122;28;96786;-52
2023/05/27 06:03:13;;;;;;;3.50;2.50;;;;;;;12.62;55.48;102703.25;4895458;28;100194;-53
2023/05/27 06:05:38;;;;;;;3.00;2.43;;;;;;;12.71;55.62;102684.69;4895807;28;98023;-51
2023/05/27 06:08:04;;;;;;;4.33;2.23;;;;;;;12.82;55.48;102697.31;4893473;28;97177;-53
2023/05/27 06:10:29;;;;;;;6.60;2.47;;;;;;;12.90;55.41;102693.00;4895052;28;96759;-52
2023/05/27 06:12:54;;;;;;;5.77;2.90;;;;;;;12.98;55.50;102695.00;4897031;28;97220;-51
2023/05/27 06:15:20;;;;;;;6.50;2.57;;;;;;;13.05;55.41;102689.22;4895933;28;97861;-50
2023/05/27 06:17:47;;;;;;;5.30;2.27;;;;;;;13.15;55.47;102692.75;4894311;28;97186;-54
2023/05/27 06:20:12;;;;;;;6.67;2.27;;;;;;;13.23;55.54;102692.00;4893101;28;97035;-52
2023/05/27 06:22:38;;;;;;;5.53;2.30;;;;;;;13.35;55.59;102701.34;4895378;28;96949;-51
2023/05/27 06:25:04;;;;;;;6.10;2.93;;;;;;;13.44;55.54;102695.81;4895236;28;97285;-49
2023/05/27 06:27:29;;;;;;;11.07;2.60;;;;;;;13.51;55.68;102696.28;4892494;28;97573;-52
2023/05/27 06:29:56;;;;;;;5.00;2.30;;;;;;;13.60;55.64;102698.25;4892786;28;98637;-51
2023/05/27 06:32:21;;;;;;;8.03;2.30;;;;;;;13.72;55.54;102697.31;4893292;28;97306;-53
2023/05/27 06:34:47;;;;;;;5.83;2.40;;;;;;;13.84;55.61;102692.81;4894486;28;97171;-52
2023/05/27 06:37:12;;;;;;;6.37;2.90;;;;;;;13.93;55.51;102684.50;4891693;28;96938;-51
2023/05/27 06:39:37;;;;;;;6.93;2.40;;;;;;;14.01;55.44;102683.69;4893855;28;97120;-49
2023/05/27 06:42:03;;;;;;;7.27;2.73;;;;;;;14.11;55.49;102679.66;4896158;28;97996;-54
2023/05/27 06:44:28;;;;;;;7.60;2.80;;;;;;;14.21;55.59;102680.41;4894675;28;97108;-52
2023/05/27 06:46:53;;;;;;;3.63;2.23;;;;;;;14.31;55.41;102676.38;4894520;28;105467;-54
2023/05/27 06:49:19;;;;;;;8.60;3.20;;;;;;;14.42;55.38;102678.63;4893823;28;97770;-53
2023/05/27 06:51:44;;;;;;;7.17;2.80;;;;;;;14.52;55.28;102686.44;4894941;28;97362;-51
2023/05/27 06:54:10;;;;;;;8.20;2.80;;;;;;;14.65;55.21;102683.44;4894757;28;97374;-52
2023/05/27 06:56:35;;;;;;;5.60;2.47;;;;;;;14.76;55.22;102675.34;4893234;28;98356;-53
2023/05/27 06:59:00;;;;;;;5.40;1.63;;;;;;;14.88;55.02;102677.88;4893113;28;96990;-51
2023/05/27 07:01:26;;;;;;;7.53;2.77;;;;;;;14.96;55.09;102678.28;4895839;28;97288;-51
2023/05/27 07:03:51;;;;;;;5.40;2.10;;;;;;;15.07;54.96;102677.75;4894034;28;97181;-53
2023/05/27 07:06:17;;;;;;;3.70;2.00;;;;;;;15.20;55.02;102664.38;4895797;28;97316;-52
2023/05/27 07:08:43;;;;;;;6.10;3.27;;;;;;;15.30;54.96;102669.38;4894342;28;97031;-51
2023/05/27 07:11:08;;;;;;;7.07;2.80;;;;;;;15.43;54.82;102672.66;4894793;28;96779;-50
2023/05/27 07:13:33;;;;;;;5.70;2.23;;;;;;;15.54;54.72;102669.31;4894170;28;97635;-53
2023/05/27 07:15:59;;;;;;;6.20;3.17;;;;;;;15.63;54.56;102669.22;4892892;28;97504;-51
2023/05/27 07:18:24;;;;;;;5.13;2.50;;;;;;;15.71;54.58;102667.59;4898178;28;96937;-52
2023/05/27 07:20:49;;;;;;;6.13;2.43;;;;;;;15.81;54.35;102673.81;4903241;28;96769;-50
2023/05/27 07:23:16;;;;;;;8.23;2.63;;;;;;;15.91;54.26;102669.69;4892162;28;109791;-52
2023/05/27 07:25:41;;;;;;;6.53;2.53;;;;;;;16.01;54.16;102671.88;4894901;28;97223;-50
2023/05/27 07:28:06;;;;;;;11.40;2.60;;;;;;;16.14;53.95;102668.81;4894271;28;97050;-55
2023/05/27 07:30:32;;;;;;;6.53;2.73;;;;;;;16.22;53.71;102661.59;4891682;28;96685;-51
2023/05/27 07:32:57;;;;;;;7.13;2.43;;;;;;;16.30;53.45;102666.25;4893247;28;97219;-51
2023/05/27 07:35:23;;;;;;;5.33;2.60;;;;;;;16.44;53.35;102668.25;4896878;28;97687;-54
2023/05/27 07:37:48;;;;;;;5.13;2.20;;;;;;;16.57;53.13;102648.47;4894923;28;97172;-51
2023/05/27 07:40:14;;;;;;;4.80;2.33;;;;;;;16.61;53.09;102657.38;4893216;28;97159;-53
2023/05/27 07:42:39;;;;;;;8.23;2.43;;;;;;;16.69;52.97;102654.91;4892368;28;98717;-52
2023/05/27 07:45:05;;;;;;;7.63;2.70;;;;;;;16.80;52.88;102649.50;4891947;28;96776;-51
2023/05/27 07:47:31;;;;;;;8.67;2.70;;;;;;;16.91;52.80;102649.63;4893564;28;97386;-50
2023/05/27 07:49:56;;;;;;;7.80;3.10;;;;;;;17.01;52.62;102635.13;4890377;28;97161;-50
2023/05/27 07:52:21;;;;;;;5.10;2.33;;;;;;;17.07;52.35;102635.16;4895876;28;97485;-54
2023/05/27 07:54:48;;;;;;;5.13;2.07;;;;;;;17.19;52.17;102636.78;4891360;28;98372;-51
2023/05/27 07:57:16;;;;;;;6.67;2.67;;;;;;;17.28;52.00;102636.63;4891907;28;96867;-54
2023/05/27 07:59:41;;;;;;;3.53;2.47;;;;;;;17.34;51.67;102633.91;4897525;28;97066;-51
2023/05/27 08:02:07;;;;;;;3.90;2.17;;;;;;;17.44;51.51;102636.03;4895126;28;97386;-54
2023/05/27 08:04:32;;;;;;;11.03;2.57;;;;;;;17.52;51.58;102626.00;4896459;28;103346;-52
2023/05/27 08:06:58;;;;;;;3.83;2.00;;;;;;;17.58;51.45;102624.03;4894669;28;96914;-52
2023/05/27 08:09:24;;;;;;;6.43;2.50;;;;;;;17.62;51.35;102618.25;4893462;28;97364;-53
2023/05/27 08:11:49;;;;;;;5.90;2.10;;;;;;;17.72;51.05;102617.59;4893018;28;97381;-50
2023/05/27 08:14:15;;;;;;;6.30;2.20;;;;;;;17.85;50.85;102609.56;4891878;28;96964;-51
2023/05/27 08:16:41;;;;;;;4.63;1.87;;;;;;;18.01;50.78;102612.97;4892586;28;97075;-52
2023/05/27 08:19:07;;;;;;;4.93;2.13;;;;;;;18.14;50.42;102607.72;4894454;28;97493;-56
2023/05/27 08:21:32;;;;;;;7.10;2.77;;;;;;;18.23;50.23;102613.09;4892737;28;97881;-51
2023/05/27 08:23:57;;;;;;;3.00;1.70;;;;;;;18.36;50.07;102614.19;4899419;28;98313;-50
2023/05/27 08:26:23;;;;;;;5.80;2.20;;;;;;;18.47;49.92;102602.38;4893396;28;97141;-54
2023/05/27 08:28:48;;;;;;;7.23;2.57;;;;;;;18.58;49.53;102605.19;4893717;28;97127;-52
2023/05/27 08:31:14;;;;;;;3.80;2.10;;;;;;;18.69;49.34;102596.88;4891338;28;107586;-53
2023/05/27 08:33:39;;;;;;;3.50;2.30;;;;;;;18.72;48.85;102601.44;4894550;28;97653;-51
2023/05/27 08:36:05;;;;;;;5.00;1.97;;;;;;;18.79;48.99;102594.59;4897171;28;96839;-51
2023/05/27 08:38:31;;;;;;;4.37;1.80;;;;;;;18.88;48.82;102592.34;4894254;28;97399;-54
2023/05/27 08:40:57;;;;;;;4.40;2.17;;;;;;;18.97;48.89;102592.13;4893434;28;97221;-51
2023/05/27 08:43:22;;;;;;;2.90;1.87;;;;;;;19.10;48.59;102588.84;4891770;28;97125;-52
2023/05/27 08:45:49;;;;;;;2.57;1.80;;;;;;;19.21;48.13;102584.06;4892221;28;97240;-51
2023/05/27 08:48:15;;;;;;;3.10;1.67;;;;;;;19.33;48.16;102587.63;4893374;28;97122;-52
2023/05/27 08:50:40;;;;;;;4.03;2.00;;;;;;;19.40;48.09;102589.91;4893820;28;97562;-52
2023/05/27 08:53:08;;;;;;;4.03;1.90;;;;;;;19.54;48.10;102590.94;4892459;28;98445;-51
2023/05/27 08:55:34;;;;;;;5.50;1.87;;;;;;;19.71;47.75;102588.91;4889868;28;97365;-53
2023/05/27 08:58:02;;;;;;;4.77;2.07;;;;;;;19.82;47.44;102589.66;4893251;28;96878;-51
2023/05/27 09:00:28;;;;;;;6.57;2.50;;;;;;;19.92;47.13;102576.19;4892862;28;97045;-52
2023/05/27 09:02:56;;;;;;;5.10;2.03;;;;;;;19.92;47.05;102584.56;4892876;28;97190;-53
2023/05/27 09:05:22;;;;;;;6.10;2.57;;;;;;;20.04;47.09;102572.06;4894302;28;97325;-52
2023/05/27 09:07:48;;;;;;;5.13;1.90;;;;;;;20.15;46.63;102574.84;4893043;28;96829;-54
2023/05/27 09:10:13;;;;;;;5.30;2.30;;;;;;;20.30;46.40;102575.31;4891862;28;97461;-54
2023/05/27 09:12:42;;;;;;;8.07;2.60;;;;;;;20.44;46.61;102565.88;4890072;28;97147;-52
2023/05/27 09:15:08;;;;;;;4.00;2.27;;;;;;;20.58;46.37;102566.78;4891564;28;96940;-51
2023/05/27 09:17:33;;;;;;;5.53;2.10;;;;;;;20.64;45.48;102570.34;4890107;28;97271;-55
2023/05/27 09:19:59;;;;;;;5.33;2.40;;;;;;;20.73;45.36;102576.38;4896353;28;99577;-51
2023/05/27 09:22:28;;;;;;;7.83;2.50;;;;;;;20.80;45.38;102570.25;4892501;28;97306;-50
2023/05/27 09:24:54;;;;;;;6.93;2.47;;;;;;;20.97;45.07;102572.94;4893414;28;96962;-54
2023/05/27 09:27:24;;;;;;;3.87;2.33;;;;;;;20.94;43.18;102573.97;4894951;28;97139;-50
2023/05/27 09:29:50;;;;;;;5.93;2.13;;;;;;;20.90;44.60;102559.50;4894422;28;96915;-54
2023/05/27 09:32:31;;;;;;;3.87;2.20;;;;;;;21.06;42.67;102557.88;4893635;28;97111;-51
2023/05/27 09:34:57;;;;;;;4.30;2.10;;;;;;;21.24;44.60;102549.63;4894502;28;97077;-54
2023/05/27 09:37:32;;;;;;;3.43;2.40;;;;;;;21.42;43.71;102551.75;4896714;28;97276;-54
2023/05/27 09:39:59;;;;;;;5.07;2.20;;;;;;;21.53;44.11;102545.28;4893492;28;96966;-50
2023/05/27 09:42:24;;;;;;;4.50;1.83;;;;;;;21.67;43.88;102544.13;4895171;28;97137;-53
2023/05/27 09:44:50;;;;;;;4.70;2.00;;;;;;;21.70;43.48;102531.88;4895451;28;97189;-51
2023/05/27 09:47:18;;;;;;;3.57;1.97;;;;;;;21.63;42.59;102538.06;4894420;28;97034;-51
2023/05/27 09:49:45;;;;;;;7.40;3.00;;;;;;;21.47;42.66;102536.91;4893527;28;96821;-51
2023/05/27 09:52:11;;;;;;;6.67;2.10;;;;;;;21.47;42.82;102542.53;4894623;28;96782;-52
2023/05/27 09:54:37;;;;;;;3.87;1.83;;;;;;;21.53;43.37;102536.88;4899007;28;97104;-53
2023/05/27 09:57:06;;;;;;;3.17;2.37;;;;;;;21.69;42.79;102535.94;4894495;28;97429;-50
2023/05/27 09:59:31;;;;;;;3.27;1.83;;;;;;;21.76;43.01;102520.59;4893377;28;96977;-53
2023/05/27 10:01:58;;;;;;;3.43;1.70;;;;;;;21.92;42.78;102526.06;4894964;28;97167;-53
2023/05/27 10:04:24;;;;;;;4.83;1.90;;;;;;;22.04;42.82;102521.81;4893319;28;97676;-54
2023/05/27 10:06:50;;;;;;;4.90;2.40;;;;;;;22.16;42.48;102523.22;4896693;28;96930;-54
2023/05/27 10:09:17;;;;;;;4.47;1.80;;;;;;;22.23;42.52;102516.25;4895635;28;97657;-52
2023/05/27 10:11:44;;;;;;;3.37;1.80;;;;;;;22.30;42.38;102516.41;4893538;28;97748;-51
2023/05/27 10:14:11;;;;;;;3.00;2.17;;;;;;;22.47;42.35;102515.44;4894033;28;96824;-51
2023/05/27 10:16:37;;;;;;;3.00;2.00;;;;;;;22.46;41.73;102508.28;4894672;28;97209;-53
2023/05/27 10:19:02;;;;;;;4.27;2.50;;;;;;;22.50;41.77;102517.19;4894157;28;97310;-55
2023/05/27 10:21:30;;;;;;;5.53;2.40;;;;;;;22.48;41.65;102506.47;4895124;28;97521;-52
2023/05/27 10:24:01;;;;;;;5.77;2.10;;;;;;;22.48;41.29;102509.28;4895298;28;97287;-50
2023/05/27 10:26:35;;;;;;;5.07;2.37;;;;;;;22.63;40.86;102511.66;4893506;28;96798;-52
2023/05/27 10:29:14;;;;;;;4.57;2.10;;;;;;;22.78;40.58;102503.53;4894467;28;97311;-55
2023/05/27 10:31:49;;;;;;;5.00;2.27;;;;;;;22.73;39.44;102493.13;4927476;28;99959;-50
2023/05/27 10:34:15;;;;;;;4.90;2.30;;;;;;;22.73;41.04;102504.34;4892965;28;97134;-52
2023/05/27 10:36:41;;;;;;;4.20;2.10;;;;;;;22.85;40.97;102483.22;4894381;28;97533;-53
2023/05/27 10:39:13;;;;;;;4.53;2.00;;;;;;;22.94;40.19;102489.22;4894313;28;97333;-51
2023/05/27 10:41:52;;;;;;;5.40;2.47;;;;;;;22.91;39.50;102481.84;4894346;28;96902;-54
2023/05/27 10:44:36;;;;;;;5.70;2.57;;;;;;;23.01;40.02;102482.97;4892844;28;97210;-53
2023/05/27 10:47:10;;;;;;;3.27;1.83;;;;;;;23.16;40.86;102481.69;4895063;28;96913;-53
2023/05/27 10:49:38;;;;;;;4.47;2.47;;;;;;;23.25;40.29;102482.06;4893847;28;97289;-53
2023/05/27 10:52:15;;;;;;;3.27;2.30;;;;;;;23.20;39.42;102471.66;4894157;28;97282;-56
2023/05/27 10:54:46;;;;;;;4.90;2.37;;;;;;;23.27;39.32;102473.09;4897519;28;97001;-52
2023/05/27 10:57:12;;;;;;;3.97;2.20;;;;;;;23.28;39.62;102471.78;4894694;28;97162;-54
2023/05/27 10:59:57;;;;;;;5.20;2.50;;;;;;;23.28;38.61;102469.75;4892510;28;97446;-51
2023/05/27 11:02:23;;;;;;;8.37;2.40;;;;;;;23.20;39.45;102466.06;4895370;28;96937;-50
2023/05/27 11:04:49;;;;;;;2.87;2.10;;;;;;;23.05;39.75;102465.81;4895881;28;97043;-51
2023/05/27 11:07:18;;;;;;;2.90;2.20;;;;;;;23.11;39.51;102452.41;4898023;28;97106;-53
2023/05/27 11:09:49;;;;;;;5.07;2.40;;;;;;;23.28;39.69;102458.53;4894426;28;96859;-55
2023/05/27 11:12:16;;;;;;;3.43;2.20;;;;;;;23.50;39.59;102466.53;4896827;28;97064;-53
2023/05/27 11:14:43;;;;;;;4.90;2.67;;;;;;;23.57;39.11;102454.66;4893117;28;96965;-50
2023/05/27 11:17:18;;;;;;;4.40;1.87;;;;;;;23.52;38.52;102447.09;4891667;28;97082;-50
2023/05/27 11:19:45;;;;;;;5.23;2.37;;;;;;;23.55;39.37;102448.81;4895934;28;96825;-51
2023/05/27 11:22:12;;;;;;;5.00;2.47;;;;;;;23.71;39.23;102446.97;4893877;28;98072;-53
2023/05/27 11:24:38;;;;;;;3.60;2.10;;;;;;;23.93;39.12;102437.31;4894153;28;97464;-53